Time;durP1;ratioP1;P1;durP2;ratioP2;P2;SDS_P1;SDS_P2;PMS_P1;PMS_P2;Temp;Humidity;BMP_temperature;BMP_pressure;BME280_temperature;BME280_humidity;BME280_pressure;Samples;Min_cycle;Max_cycle;Signal;HPM_P1;HPM_P2
2021/10/08 00:02:15;;;;;;;8.23;4.87;;;;;;;6.98;52.71;102576.75;1731363;81;21197;-59
2021/10/08 00:04:41;;;;;;;9.53;4.95;;;;;;;6.98;52.90;102574.98;1729350;81;21559;-59
2021/10/08 00:07:08;;;;;;;8.58;4.47;;;;;;;6.95;53.22;102571.14;1727959;81;21101;-59
2021/10/08 00:09:35;;;;;;;9.05;4.40;;;;;;;6.92;53.39;102580.85;1730940;81;21099;-59
2021/10/08 00:12:01;;;;;;;11.10;5.15;;;;;;;6.87;53.45;102579.67;1706653;81;21133;-59
2021/10/08 00:14:28;;;;;;;9.63;4.95;;;;;;;6.84;53.76;102581.94;1706744;81;22079;-59
2021/10/08 00:16:54;;;;;;;9.85;4.35;;;;;;;6.81;53.59;102578.10;1729809;80;21090;-59
2021/10/08 00:19:21;;;;;;;14.33;5.75;;;;;;;6.79;53.46;102577.72;1706290;81;21077;-59
2021/10/08 00:21:48;;;;;;;12.50;5.60;;;;;;;6.77;53.62;102577.77;1727247;80;22976;-59
2021/10/08 00:24:14;;;;;;;8.85;5.40;;;;;;;6.74;53.63;102571.34;1729945;80;21097;-59
2021/10/08 00:26:41;;;;;;;9.58;4.85;;;;;;;6.70;53.67;102582.31;1733131;81;21731;-59
2021/10/08 00:29:10;;;;;;;13.00;6.00;;;;;;;6.68;53.86;102581.97;1732308;80;21074;-60
2021/10/08 00:31:37;;;;;;;8.90;4.12;;;;;;;6.68;55.14;102585.44;1698621;81;21084;-59
2021/10/08 00:34:03;;;;;;;9.73;4.95;;;;;;;6.68;55.17;102583.28;1728432;81;22394;-59
2021/10/08 00:36:30;;;;;;;8.73;4.92;;;;;;;6.66;55.08;102584.62;1732677;80;21659;-59
2021/10/08 00:38:57;;;;;;;11.90;5.17;;;;;;;6.65;54.95;102576.82;1731539;81;21149;-60
2021/10/08 00:41:24;;;;;;;9.23;4.67;;;;;;;6.63;55.16;102582.55;1728640;81;21170;-59
2021/10/08 00:43:52;;;;;;;10.20;4.08;;;;;;;6.59;55.09;102584.83;1748558;80;21079;-59
2021/10/08 00:46:18;;;;;;;12.03;4.67;;;;;;;6.54;55.16;102585.41;1734398;80;21580;-59
2021/10/08 00:48:50;;;;;;;12.30;5.22;;;;;;;6.48;55.59;102582.52;1735572;80;21181;-59
2021/10/08 00:51:18;;;;;;;9.43;5.30;;;;;;;6.43;55.84;102589.64;1736555;80;21782;-59
2021/10/08 00:53:44;;;;;;;8.43;4.62;;;;;;;6.35;55.79;102584.61;1752234;80;21067;-59
2021/10/08 00:56:11;;;;;;;9.63;5.72;;;;;;;6.32;56.24;102582.95;1730221;80;21097;-60
2021/10/08 00:58:39;;;;;;;10.63;5.08;;;;;;;6.32;56.27;102582.07;1752809;79;21098;-59
2021/10/08 01:01:07;;;;;;;17.23;5.42;;;;;;;6.30;56.28;102587.38;1752021;79;21074;-59
2021/10/08 01:03:34;;;;;;;10.88;4.75;;;;;;;6.27;56.31;102586.56;1715061;81;21134;-59
2021/10/08 01:06:00;;;;;;;10.65;5.80;;;;;;;6.23;56.48;102584.95;1682286;83;21027;-57
2021/10/08 01:08:27;;;;;;;9.00;4.90;;;;;;;6.19;56.39;102584.63;1752334;80;21507;-58
2021/10/08 01:10:53;;;;;;;13.55;5.97;;;;;;;6.14;56.60;102585.59;1750346;80;21627;-57
2021/10/08 01:13:20;;;;;;;9.10;4.97;;;;;;;6.10;56.63;102583.97;1752393;79;21077;-58
2021/10/08 01:15:47;;;;;;;9.70;5.10;;;;;;;6.08;56.62;102584.44;1752893;80;21125;-58
2021/10/08 01:18:13;;;;;;;10.00;5.08;;;;;;;6.05;56.59;102591.08;1750548;79;21042;-58
2021/10/08 01:20:41;;;;;;;9.83;4.47;;;;;;;6.01;56.71;102586.80;1734633;79;21062;-57
2021/10/08 01:23:09;;;;;;;11.00;5.03;;;;;;;6.00;56.71;102594.26;1749237;80;21569;-60
2021/10/08 01:25:38;;;;;;;9.78;4.87;;;;;;;5.95;56.63;102587.80;1750203;79;21062;-59
2021/10/08 01:28:06;;;;;;;9.08;5.20;;;;;;;5.91;56.77;102591.38;1750449;80;21376;-59
2021/10/08 01:30:35;;;;;;;8.75;4.78;;;;;;;5.88;56.89;102589.28;1750915;79;21138;-59
2021/10/08 01:33:04;;;;;;;9.30;4.55;;;;;;;5.86;56.88;102588.47;1751917;80;21098;-60
2021/10/08 01:35:32;;;;;;;8.60;4.83;;;;;;;5.86;56.93;102591.09;1737516;80;21672;-59
2021/10/08 01:38:00;;;;;;;9.93;5.00;;;;;;;5.84;56.93;102590.27;1751825;79;21731;-59
2021/10/08 01:40:26;;;;;;;8.90;4.87;;;;;;;5.81;57.01;102593.80;1750475;79;21585;-59
2021/10/08 01:42:54;;;;;;;10.68;4.92;;;;;;;5.76;57.22;102591.30;1750551;79;21677;-59
2021/10/08 01:45:21;;;;;;;10.28;4.65;;;;;;;5.73;57.30;102592.70;1751487;80;21448;-60
2021/10/08 01:47:49;;;;;;;8.63;4.83;;;;;;;5.71;57.45;102587.94;1750563;80;21452;-59
2021/10/08 01:50:15;;;;;;;7.05;3.85;;;;;;;5.73;57.55;102594.02;1750292;80;21794;-60
2021/10/08 01:52:43;;;;;;;11.90;5.03;;;;;;;5.84;57.60;102592.89;1748813;80;21523;-60
2021/10/08 01:55:10;;;;;;;9.18;4.58;;;;;;;5.93;57.45;102597.87;1748229;79;21476;-60
2021/10/08 01:57:37;;;;;;;8.48;4.28;;;;;;;5.99;57.49;102600.83;1748002;80;21118;-59
2021/10/08 02:00:05;;;;;;;8.28;4.42;;;;;;;6.04;57.47;102602.42;1730663;80;21079;-59
2021/10/08 02:02:35;;;;;;;13.80;4.78;;;;;;;6.07;57.37;102601.46;1748618;80;21118;-59
2021/10/08 02:05:02;;;;;;;12.40;5.35;;;;;;;6.09;57.37;102611.45;1746693;79;22215;-59
2021/10/08 02:07:30;;;;;;;8.98;4.67;;;;;;;6.05;57.27;102608.06;1745354;79;22399;-60
2021/10/08 02:09:57;;;;;;;10.50;5.25;;;;;;;6.05;57.12;102605.87;1719511;80;21122;-60
2021/10/08 02:12:23;;;;;;;8.53;4.62;;;;;;;6.04;56.79;102602.42;1750605;79;21043;-59
2021/10/08 02:14:51;;;;;;;8.30;5.05;;;;;;;6.02;56.84;102605.52;1747893;80;22454;-60
2021/10/08 02:17:17;;;;;;;9.70;4.92;;;;;;;5.99;56.75;102608.67;1750514;79;21907;-59
2021/10/08 02:19:44;;;;;;;11.93;5.22;;;;;;;5.93;56.84;102605.70;1727803;79;21125;-60
2021/10/08 02:22:11;;;;;;;9.68;4.45;;;;;;;5.89;57.01;102613.23;1749587;79;21075;-59
2021/10/08 02:24:39;;;;;;;10.50;5.30;;;;;;;5.82;57.12;102607.75;1724823;80;21074;-59
2021/10/08 02:27:06;;;;;;;12.40;6.25;;;;;;;5.79;57.18;102610.43;1747426;79;21118;-58
2021/10/08 02:29:32;;;;;;;11.43;4.45;;;;;;;5.76;57.11;102611.34;1746606;79;21158;-58
2021/10/08 02:32:00;;;;;;;10.15;4.95;;;;;;;5.70;57.05;102614.98;1747458;80;21711;-58
2021/10/08 02:34:29;;;;;;;11.38;5.50;;;;;;;5.66;57.18;102617.23;1746818;80;21137;-58
2021/10/08 02:36:56;;;;;;;12.33;4.97;;;;;;;5.63;57.37;102617.76;1727261;80;21106;-58
2021/10/08 02:39:23;;;;;;;10.98;5.22;;;;;;;5.59;57.57;102621.74;1731006;80;21464;-58
2021/10/08 02:41:50;;;;;;;8.45;4.97;;;;;;;5.55;57.50;102623.18;1747622;79;21629;-58
2021/10/08 02:44:17;;;;;;;12.53;4.58;;;;;;;5.53;57.56;102628.86;1753242;79;21003;-58
2021/10/08 02:46:43;;;;;;;10.25;5.35;;;;;;;5.49;57.35;102628.53;1757708;79;21086;-58
2021/10/08 02:49:10;;;;;;;10.08;5.47;;;;;;;5.48;57.27;102627.68;1758671;80;21601;-58
2021/10/08 02:51:36;;;;;;;10.35;5.20;;;;;;;5.45;57.18;102630.81;1759342;80;21077;-59
2021/10/08 02:54:03;;;;;;;11.55;5.72;;;;;;;5.42;57.19;102631.73;1755758;80;21174;-59
2021/10/08 02:56:31;;;;;;;9.63;4.67;;;;;;;5.36;57.10;102627.52;1757666;79;21059;-59
2021/10/08 02:58:57;;;;;;;11.33;5.37;;;;;;;5.33;57.02;102632.80;1754645;79;21074;-59
2021/10/08 03:01:24;;;;;;;8.75;4.83;;;;;;;5.31;56.81;102637.63;1755560;79;21050;-58
2021/10/08 03:03:51;;;;;;;10.75;5.37;;;;;;;5.29;56.65;102636.34;1757648;80;21098;-58
2021/10/08 03:06:17;;;;;;;10.95;5.15;;;;;;;5.27;56.46;102640.75;1760451;80;21059;-58
2021/10/08 03:08:45;;;;;;;9.95;4.75;;;;;;;5.28;56.83;102638.56;1755423;80;21737;-58
2021/10/08 03:11:12;;;;;;;8.95;5.05;;;;;;;5.28;56.73;102642.48;1729145;80;22372;-57
2021/10/08 03:13:40;;;;;;;9.65;5.08;;;;;;;5.26;56.89;102644.70;1755203;80;22710;-59
2021/10/08 03:16:07;;;;;;;10.68;5.58;;;;;;;5.24;57.00;102642.57;1709613;80;21102;-57
2021/10/08 03:18:33;;;;;;;10.50;5.05;;;;;;;5.20;57.20;102641.33;1753850;79;21106;-59
2021/10/08 03:21:02;;;;;;;13.65;5.50;;;;;;;5.16;57.25;102642.72;1753139;79;21369;-59
2021/10/08 03:23:30;;;;;;;9.68;5.37;;;;;;;5.14;57.19;102649.73;1752397;80;21963;-60
2021/10/08 03:25:56;;;;;;;12.68;5.40;;;;;;;5.14;57.25;102651.03;1753959;80;21676;-60
2021/10/08 03:28:24;;;;;;;17.80;5.67;;;;;;;5.16;56.93;102652.73;1712218;80;21385;-60
2021/10/08 03:30:50;;;;;;;9.68;5.30;;;;;;;5.19;57.00;102656.59;1727858;80;21114;-60
2021/10/08 03:33:17;;;;;;;10.13;5.28;;;;;;;5.23;57.26;102662.61;1756789;80;21150;-60
2021/10/08 03:35:44;;;;;;;10.05;5.50;;;;;;;5.25;57.26;102663.87;1757521;79;21430;-59
2021/10/08 03:38:18;;;;;;;9.58;4.97;;;;;;;5.25;57.24;102671.25;1724264;80;21113;-56
2021/10/08 03:40:42;;;;;;;11.40;5.30;;;;;;;5.26;57.43;102669.50;1753909;79;21609;-59
2021/10/08 03:43:11;;;;;;;10.38;5.72;;;;;;;5.26;57.47;102669.08;1757293;80;22680;-61
2021/10/08 03:45:49;;;;;;;11.28;5.92;;;;;;;5.29;57.17;102666.37;1732643;80;21097;-58
2021/10/08 03:50:50;;;;;;;9.98;5.30;;;;;;;5.55;56.32;102663.20;1730200;80;21081;-58
2021/10/08 03:53:17;;;;;;;9.93;5.85;;;;;;;5.65;56.47;102670.39;1753231;79;21145;-59
2021/10/08 03:55:44;;;;;;;10.90;5.42;;;;;;;5.69;56.03;102662.03;1753285;79;21116;-58
2021/10/08 03:58:11;;;;;;;15.50;5.03;;;;;;;5.74;56.02;102673.23;1753440;80;21074;-58
2021/10/08 04:00:38;;;;;;;10.18;5.20;;;;;;;5.78;56.10;102668.33;1725940;80;21125;-59
2021/10/08 04:03:06;;;;;;;10.45;5.45;;;;;;;5.83;55.93;102672.16;1753795;79;21080;-60
2021/10/08 04:05:33;;;;;;;10.23;5.67;;;;;;;5.84;56.01;102671.27;1750341;79;22695;-59
2021/10/08 04:08:00;;;;;;;10.28;5.92;;;;;;;5.83;55.81;102673.00;1758105;80;21081;-55
2021/10/08 04:10:28;;;;;;;9.35;4.78;;;;;;;5.82;55.85;102669.15;1755680;79;21086;-59
2021/10/08 04:12:54;;;;;;;12.23;5.80;;;;;;;5.80;56.18;102668.30;1758898;79;21015;-59
2021/10/08 04:15:22;;;;;;;9.90;5.97;;;;;;;5.80;56.18;102672.22;1759332;80;21023;-59
2021/10/08 04:17:49;;;;;;;9.83;5.83;;;;;;;5.77;56.27;102670.09;1754798;80;21459;-59
2021/10/08 04:20:15;;;;;;;11.20;5.53;;;;;;;5.74;55.98;102665.39;1751829;79;21489;-59
2021/10/08 04:22:42;;;;;;;9.25;5.85;;;;;;;5.73;55.96;102669.77;1749847;79;21131;-60
2021/10/08 04:25:09;;;;;;;10.15;4.87;;;;;;;5.71;55.78;102667.61;1752990;79;21137;-58
2021/10/08 04:27:35;;;;;;;9.15;5.20;;;;;;;5.67;55.61;102671.66;1758670;79;21086;-59
2021/10/08 04:30:03;;;;;;;9.25;5.30;;;;;;;5.64;55.56;102672.58;1733358;80;21074;-59
2021/10/08 04:32:31;;;;;;;11.70;5.60;;;;;;;5.63;55.39;102673.49;1732352;80;21101;-60
2021/10/08 04:34:57;;;;;;;11.20;4.95;;;;;;;5.62;55.22;102671.76;1730142;80;21030;-60
2021/10/08 04:37:24;;;;;;;9.95;4.80;;;;;;;5.62;55.33;102676.13;1729347;80;22645;-60
2021/10/08 04:39:50;;;;;;;15.05;5.40;;;;;;;5.66;55.46;102681.69;1749951;79;21121;-59
2021/10/08 04:42:17;;;;;;;12.28;5.53;;;;;;;5.66;55.57;102677.77;1750703;79;21333;-59
2021/10/08 04:44:45;;;;;;;9.30;5.42;;;;;;;5.69;54.97;102682.93;1752701;79;21140;-59
2021/10/08 04:47:12;;;;;;;11.65;5.70;;;;;;;5.72;55.05;102679.80;1752892;80;21153;-56
2021/10/08 04:49:39;;;;;;;9.80;5.15;;;;;;;5.75;54.55;102686.72;1753938;80;21142;-56
2021/10/08 04:52:06;;;;;;;13.53;6.20;;;;;;;5.80;54.63;102686.59;1728060;80;21486;-57
2021/10/08 04:54:33;;;;;;;9.63;5.47;;;;;;;5.86;54.17;102698.22;1751280;80;21153;-57
2021/10/08 04:57:00;;;;;;;11.33;6.12;;;;;;;5.92;54.14;102692.86;1751480;80;21196;-55
2021/10/08 04:59:27;;;;;;;13.68;6.30;;;;;;;5.97;54.05;102687.11;1741195;80;21145;-59
2021/10/08 05:01:54;;;;;;;10.88;6.50;;;;;;;5.99;53.98;102689.69;1752127;79;21142;-59
2021/10/08 05:04:20;;;;;;;13.18;6.17;;;;;;;6.01;54.09;102688.73;1722581;80;21094;-59
2021/10/08 05:06:46;;;;;;;14.75;5.78;;;;;;;6.06;54.30;102692.55;1757190;80;21004;-59
2021/10/08 05:09:14;;;;;;;11.00;5.20;;;;;;;6.10;53.90;102691.14;1734787;80;21726;-59
2021/10/08 05:11:42;;;;;;;10.48;5.45;;;;;;;6.16;53.78;102691.89;1755375;79;21055;-59
2021/10/08 05:14:13;;;;;;;11.30;6.28;;;;;;;6.19;53.60;102690.52;1734672;80;21054;-61
2021/10/08 05:16:41;;;;;;;11.80;5.53;;;;;;;6.23;53.27;102692.14;1757881;80;21070;-59
2021/10/08 05:19:07;;;;;;;9.88;5.15;;;;;;;6.27;53.15;102690.73;1756210;79;21121;-59
2021/10/08 05:21:34;;;;;;;10.23;5.72;;;;;;;6.31;53.02;102692.81;1760994;80;21472;-59
2021/10/08 05:24:01;;;;;;;12.37;6.17;;;;;;;6.31;52.79;102699.34;1754853;80;21098;-60
2021/10/08 05:26:27;;;;;;;9.93;5.33;;;;;;;6.30;52.97;102702.84;1753912;79;21138;-60
2021/10/08 05:28:54;;;;;;;8.38;4.67;;;;;;;6.30;52.88;102701.54;1751051;79;21443;-59
2021/10/08 05:31:22;;;;;;;13.78;5.62;;;;;;;6.32;52.48;102704.54;1753969;80;21122;-59
2021/10/08 05:33:49;;;;;;;9.60;5.35;;;;;;;6.32;52.69;102697.13;1754210;80;21710;-60
2021/10/08 05:36:15;;;;;;;10.23;5.70;;;;;;;6.33;51.83;102702.77;1751544;79;21504;-59
2021/10/08 05:38:42;;;;;;;10.75;6.53;;;;;;;6.28;52.26;102700.27;1756325;80;21418;-59
2021/10/08 05:41:08;;;;;;;11.45;6.35;;;;;;;6.29;52.42;102699.84;1757229;80;21157;-60
2021/10/08 05:43:35;;;;;;;11.30;5.87;;;;;;;6.31;52.56;102703.27;1754592;80;21091;-59
2021/10/08 05:46:02;;;;;;;10.75;5.90;;;;;;;6.32;52.98;102703.66;1755349;80;21089;-59
2021/10/08 05:48:29;;;;;;;10.35;5.05;;;;;;;6.37;52.89;102707.05;1756370;79;21526;-59
2021/10/08 05:50:56;;;;;;;11.15;5.78;;;;;;;6.40;52.47;102706.95;1735214;80;21110;-59
2021/10/08 05:53:22;;;;;;;11.45;6.08;;;;;;;6.41;52.36;102704.75;1753050;79;21087;-60
2021/10/08 05:55:49;;;;;;;10.35;6.35;;;;;;;6.44;51.90;102707.30;1754201;80;21011;-59
2021/10/08 05:58:15;;;;;;;11.78;6.42;;;;;;;6.48;52.09;102706.77;1754557;79;21065;-59
2021/10/08 06:00:42;;;;;;;12.60;5.60;;;;;;;6.54;52.04;102716.20;1752897;80;21091;-60
2021/10/08 06:03:09;;;;;;;11.73;6.53;;;;;;;6.56;52.35;102712.66;1755935;80;21396;-60
2021/10/08 06:05:38;;;;;;;10.48;5.47;;;;;;;6.63;52.02;102719.90;1730198;80;21410;-60
2021/10/08 06:08:05;;;;;;;13.30;6.12;;;;;;;6.67;51.75;102714.98;1756187;80;22289;-60
2021/10/08 06:10:32;;;;;;;8.93;5.62;;;;;;;6.73;51.59;102714.83;1756695;79;21091;-65
2021/10/08 06:12:59;;;;;;;9.90;5.90;;;;;;;6.75;51.23;102715.64;1756623;79;20987;-61
2021/10/08 06:15:25;;;;;;;14.87;5.65;;;;;;;6.76;51.57;102717.80;1732825;80;21550;-59
2021/10/08 06:17:53;;;;;;;16.27;6.37;;;;;;;6.77;51.77;102719.06;1755068;80;21027;-58
2021/10/08 06:20:21;;;;;;;10.75;5.65;;;;;;;6.81;51.69;102712.02;1759430;80;21628;-60
2021/10/08 06:22:49;;;;;;;12.43;6.08;;;;;;;6.81;51.83;102710.25;1736287;79;21010;-60
2021/10/08 06:25:18;;;;;;;12.98;6.35;;;;;;;6.86;51.16;102705.75;1754396;79;21071;-57
2021/10/08 06:27:51;;;;;;;14.28;5.92;;;;;;;6.90;51.33;102709.59;1756812;79;21488;-62
2021/10/08 06:30:17;;;;;;;10.20;5.95;;;;;;;6.93;51.30;102702.98;1759018;80;21011;-65
2021/10/08 06:32:43;;;;;;;10.13;5.40;;;;;;;6.93;50.88;102706.44;1754422;80;21086;-61
2021/10/08 06:35:10;;;;;;;11.20;6.08;;;;;;;6.95;50.99;102706.41;1749369;80;23309;-59
2021/10/08 06:37:37;;;;;;;9.83;5.62;;;;;;;7.00;51.26;102705.83;1728585;79;21803;-62
2021/10/08 06:40:06;;;;;;;12.35;5.95;;;;;;;7.06;51.20;102705.63;1727325;79;21106;-59
2021/10/08 06:42:32;;;;;;;10.50;5.47;;;;;;;7.10;50.80;102703.81;1750948;80;21674;-62
2021/10/08 06:45:00;;;;;;;9.45;5.95;;;;;;;7.14;51.04;102702.34;1735038;79;22728;-60
2021/10/08 06:47:27;;;;;;;13.38;5.90;;;;;;;7.18;50.54;102705.77;1759709;79;21090;-65
2021/10/08 06:49:54;;;;;;;10.65;5.47;;;;;;;7.22;50.52;102708.23;1735752;79;21493;-62
2021/10/08 06:52:21;;;;;;;16.73;6.20;;;;;;;7.26;50.29;102706.38;1758751;79;21529;-60
2021/10/08 06:54:47;;;;;;;11.73;5.83;;;;;;;7.31;49.96;102706.25;1736061;80;21077;-59
2021/10/08 06:57:13;;;;;;;13.83;6.42;;;;;;;7.36;50.34;102710.47;1758379;79;21076;-59
2021/10/08 06:59:40;;;;;;;12.88;6.25;;;;;;;7.42;50.48;102706.80;1736821;79;21118;-57
2021/10/08 07:02:07;;;;;;;12.73;6.53;;;;;;;7.51;50.39;102699.11;1750978;80;21498;-59
2021/10/08 07:04:34;;;;;;;12.40;6.53;;;;;;;7.58;50.02;102698.89;1758475;79;21540;-60
2021/10/08 07:07:02;;;;;;;9.48;5.65;;;;;;;7.65;49.93;102696.06;1734074;80;21133;-61
2021/10/08 07:09:31;;;;;;;11.35;6.10;;;;;;;7.72;49.96;102693.22;1725281;80;21093;-61
2021/10/08 07:11:57;;;;;;;11.12;6.15;;;;;;;7.82;49.84;102696.42;1732633;79;21260;-60
2021/10/08 07:14:24;;;;;;;8.15;4.85;;;;;;;7.93;49.63;102698.22;1758235;79;21486;-60
2021/10/08 07:16:54;;;;;;;19.00;6.20;;;;;;;8.01;49.26;102691.44;1758335;79;21156;-60
2021/10/08 07:19:18;;;;;;;10.68;5.58;;;;;;;8.09;48.77;102688.12;1693032;82;21080;-61
2021/10/08 07:21:46;;;;;;;13.40;5.90;;;;;;;8.15;48.78;102694.48;1691643;82;21130;-60
2021/10/08 07:24:14;;;;;;;9.85;5.50;;;;;;;8.23;48.30;102690.27;1757756;79;21590;-59
2021/10/08 07:26:41;;;;;;;10.48;5.08;;;;;;;8.29;48.02;102689.23;1736185;80;21081;-61
2021/10/08 07:29:07;;;;;;;12.07;6.10;;;;;;;8.35;48.37;102685.95;1757282;79;21065;-61
2021/10/08 07:31:33;;;;;;;9.88;5.45;;;;;;;8.42;48.91;102687.87;1699998;82;21130;-59
2021/10/08 07:34:00;;;;;;;11.08;5.42;;;;;;;8.52;48.24;102695.02;1731124;79;21085;-59
2021/10/08 07:36:26;;;;;;;12.15;5.33;;;;;;;8.60;47.82;102683.81;1735907;79;22723;-60
2021/10/08 07:38:54;;;;;;;9.33;4.47;;;;;;;8.69;47.57;102687.44;1730233;80;21125;-61
2021/10/08 07:41:23;;;;;;;10.03;4.97;;;;;;;8.79;47.42;102679.22;1735150;79;21439;-59
2021/10/08 07:43:49;;;;;;;8.30;4.95;;;;;;;8.88;46.84;102683.69;1760664;79;21696;-59
2021/10/08 07:46:16;;;;;;;10.63;4.95;;;;;;;8.97;46.54;102674.62;1751199;79;21114;-62
2021/10/08 07:48:42;;;;;;;8.68;4.22;;;;;;;9.06;46.06;102683.48;1730295;80;21178;-62
2021/10/08 07:51:09;;;;;;;10.18;4.92;;;;;;;9.13;45.52;102673.61;1751918;79;21156;-61
2021/10/08 07:53:35;;;;;;;9.60;5.03;;;;;;;9.20;45.67;102669.83;1753423;80;21537;-61
2021/10/08 07:56:02;;;;;;;8.13;4.50;;;;;;;9.26;45.00;102672.67;1747812;80;21102;-61
2021/10/08 07:58:28;;;;;;;9.48;4.40;;;;;;;9.31;45.01;102666.78;1755050;80;21068;-61
2021/10/08 08:00:56;;;;;;;9.23;4.47;;;;;;;9.36;44.60;102666.61;1752128;79;21182;-63
2021/10/08 08:03:23;;;;;;;8.58;3.83;;;;;;;9.45;44.92;102669.75;1747130;80;21635;-62
2021/10/08 08:05:49;;;;;;;8.88;3.92;;;;;;;9.57;44.99;102675.45;1754011;80;21043;-61
2021/10/08 08:08:16;;;;;;;6.45;3.05;;;;;;;9.68;43.94;102678.48;1751619;79;21560;-62
2021/10/08 08:10:44;;;;;;;7.67;3.58;;;;;;;9.77;43.39;102667.63;1749938;80;21074;-61
2021/10/08 08:13:12;;;;;;;10.65;3.02;;;;;;;9.89;42.82;102671.53;1733712;80;21190;-62
2021/10/08 08:15:38;;;;;;;6.25;2.87;;;;;;;10.00;42.07;102671.08;1749902;80;21097;-58
2021/10/08 08:18:05;;;;;;;10.25;3.25;;;;;;;10.10;41.56;102664.52;1734874;80;21440;-61
2021/10/08 08:20:32;;;;;;;8.20;3.52;;;;;;;10.20;41.17;102659.73;1724722;80;21107;-60
2021/10/08 08:22:58;;;;;;;6.90;3.40;;;;;;;10.32;41.33;102661.02;1730885;80;21734;-59
2021/10/08 08:25:25;;;;;;;5.97;3.02;;;;;;;10.39;41.37;102660.70;1746896;79;22655;-60
2021/10/08 08:27:51;;;;;;;5.17;2.58;;;;;;;10.49;41.12;102658.97;1746143;79;21842;-59
2021/10/08 08:30:17;;;;;;;5.72;1.90;;;;;;;10.59;40.16;102661.16;1729199;79;21126;-60
2021/10/08 08:32:44;;;;;;;5.55;1.87;;;;;;;10.70;39.23;102653.25;1746475;80;22299;-61
2021/10/08 08:35:10;;;;;;;4.50;1.50;;;;;;;10.80;38.39;102658.49;1731929;79;21094;-60
2021/10/08 08:37:37;;;;;;;7.70;1.77;;;;;;;10.91;38.00;102657.56;1750516;79;21143;-61
2021/10/08 08:40:07;;;;;;;7.83;1.20;;;;;;;11.00;37.67;102652.33;1731362;80;21526;-61
2021/10/08 08:42:34;;;;;;;4.97;1.30;;;;;;;11.08;36.82;102644.09;1750155;79;21105;-61
2021/10/08 08:45:01;;;;;;;5.72;1.45;;;;;;;11.16;36.80;102641.92;1748710;79;21632;-59
2021/10/08 08:47:27;;;;;;;4.30;1.70;;;;;;;11.25;36.70;102646.78;1745441;79;22532;-61
2021/10/08 08:49:53;;;;;;;3.77;1.55;;;;;;;11.31;37.02;102643.87;1732169;80;21098;-59
2021/10/08 08:52:21;;;;;;;4.50;1.42;;;;;;;11.40;36.30;102650.48;1750698;79;21094;-60
2021/10/08 08:54:49;;;;;;;2.70;0.88;;;;;;;11.46;35.93;102640.94;1752495;80;21071;-60
2021/10/08 08:57:18;;;;;;;3.98;1.20;;;;;;;11.54;35.75;102644.55;1737836;80;21082;-60
2021/10/08 09:00:19;;;;;;;5.00;1.22;;;;;;;11.58;34.70;102650.04;1752803;79;21044;-60
2021/10/08 09:03:01;;;;;;;3.85;1.32;;;;;;;11.64;35.25;102647.12;1726358;80;21083;-60
2021/10/08 09:05:32;;;;;;;5.10;1.40;;;;;;;11.70;34.89;102647.27;1750119;80;21148;-59
2021/10/08 09:08:05;;;;;;;5.42;1.98;;;;;;;11.76;35.48;102642.19;1749436;79;21200;-59
2021/10/08 09:10:35;;;;;;;4.37;1.55;;;;;;;11.82;35.34;102642.73;1747245;79;21058;-59
2021/10/08 09:13:01;;;;;;;4.22;1.42;;;;;;;11.87;34.89;102635.92;1744836;80;21091;-59
2021/10/08 09:15:53;;;;;;;7.92;1.30;;;;;;;11.93;35.32;102635.63;1727115;79;22658;-60
2021/10/08 09:18:23;;;;;;;4.20;1.17;;;;;;;12.02;35.51;102627.27;1749364;79;21134;-59
2021/10/08 09:21:08;;;;;;;4.85;1.50;;;;;;;12.08;34.00;102626.09;1752425;80;22593;-59
2021/10/08 09:23:49;;;;;;;4.20;1.52;;;;;;;12.11;33.89;102630.37;1750281;80;21638;-60
2021/10/08 09:26:23;;;;;;;3.92;1.27;;;;;;;12.13;33.45;102621.44;1751544;79;21092;-59
2021/10/08 09:29:01;;;;;;;8.08;1.90;;;;;;;12.13;33.53;102616.63;1752592;80;21078;-59
2021/10/08 09:31:38;;;;;;;4.03;1.10;;;;;;;12.16;34.02;102614.69;1747445;80;21490;-60
2021/10/08 09:34:21;;;;;;;5.70;1.80;;;;;;;12.23;33.19;102606.83;1753254;79;21031;-59
2021/10/08 09:36:55;;;;;;;3.72;1.20;;;;;;;12.32;33.21;102608.61;1734705;80;22024;-59
2021/10/08 09:39:21;;;;;;;4.70;1.75;;;;;;;12.38;33.28;102610.47;1752120;80;21010;-59
2021/10/08 09:41:58;;;;;;;4.03;1.25;;;;;;;12.45;33.19;102603.92;1751746;79;21101;-59
2021/10/08 09:44:24;;;;;;;4.78;1.60;;;;;;;12.51;33.85;102597.48;1746537;79;20992;-58
2021/10/08 09:46:51;;;;;;;5.35;1.55;;;;;;;12.55;33.19;102600.81;1752622;79;21678;-59
2021/10/08 09:49:22;;;;;;;5.58;1.80;;;;;;;12.54;32.94;102603.93;1747564;79;21145;-59
2021/10/08 09:51:48;;;;;;;5.22;1.62;;;;;;;12.57;32.61;102600.25;1729744;80;21595;-59
2021/10/08 09:54:16;;;;;;;4.55;1.90;;;;;;;12.56;32.71;102594.61;1753890;80;21145;-59
2021/10/08 09:56:42;;;;;;;6.00;2.15;;;;;;;12.56;33.27;102592.81;1751369;80;21133;-59
2021/10/08 09:59:12;;;;;;;7.30;2.02;;;;;;;12.61;33.70;102589.93;1756185;80;21042;-59
2021/10/08 10:01:42;;;;;;;4.12;1.50;;;;;;;12.66;33.82;102576.01;1755416;80;21036;-59
2021/10/08 10:04:09;;;;;;;4.37;1.65;;;;;;;12.71;32.74;102579.25;1756527;80;21105;-59
2021/10/08 10:06:38;;;;;;;3.55;1.25;;;;;;;12.74;32.13;102590.98;1729252;79;21086;-59
2021/10/08 10:09:07;;;;;;;10.65;1.62;;;;;;;12.78;31.76;102589.02;1733815;80;21051;-59
2021/10/08 10:11:34;;;;;;;4.12;1.10;;;;;;;12.81;31.71;102583.58;1755358;80;21082;-60
2021/10/08 10:14:00;;;;;;;3.62;1.45;;;;;;;12.88;31.97;102579.66;1755516;80;21094;-58
2021/10/08 10:16:30;;;;;;;4.60;1.50;;;;;;;12.97;31.46;102580.45;1725863;80;21645;-59
2021/10/08 10:18:59;;;;;;;5.67;1.60;;;;;;;13.05;31.40;102573.91;1727708;80;21040;-60
2021/10/08 10:21:29;;;;;;;8.23;1.90;;;;;;;13.14;31.30;102572.91;1730494;80;21051;-59
2021/10/08 10:23:58;;;;;;;4.05;1.42;;;;;;;13.19;32.24;102576.62;1756767;79;22291;-59
2021/10/08 10:26:26;;;;;;;5.83;1.42;;;;;;;13.19;31.57;102568.69;1728624;80;21360;-59
2021/10/08 10:28:52;;;;;;;4.30;1.27;;;;;;;13.19;31.90;102556.80;1757841;80;21054;-59
2021/10/08 10:31:20;;;;;;;4.47;1.40;;;;;;;13.22;31.63;102561.07;1755651;80;21081;-59
2021/10/08 10:33:48;;;;;;;3.08;1.15;;;;;;;13.23;30.13;102550.41;1755757;80;21071;-59
2021/10/08 10:36:32;;;;;;;6.47;1.65;;;;;;;13.23;29.93;102542.48;1756036;80;21094;-60
2021/10/08 10:41:21;;;;;;;6.15;1.37;;;;;;;13.32;29.71;102548.58;1864116;75;22641;-59
2021/10/08 10:43:52;;;;;;;9.40;2.08;;;;;;;13.29;29.68;102543.91;1839991;74;20986;-61
2021/10/08 10:52:02;;;;;;;4.33;1.32;;;;;;;13.38;28.97;102550.01;1871594;74;21564;-60
2021/10/08 10:54:49;;;;;;;3.40;1.30;;;;;;;13.42;29.30;102550.71;1869542;75;21487;-59
2021/10/08 10:57:32;;;;;;;3.83;1.05;;;;;;;13.47;28.63;102552.63;1870544;74;21515;-59
2021/10/08 11:01:10;;;;;;;4.55;1.17;;;;;;;13.59;28.42;102540.47;1861425;74;22811;-60
2021/10/08 11:03:36;;;;;;;3.50;0.88;;;;;;;13.60;28.33;102551.41;1837890;75;20919;-58
2021/10/08 11:06:08;;;;;;;5.90;1.00;;;;;;;13.67;28.80;102552.30;1838854;77;21025;-58
2021/10/08 11:08:55;;;;;;;5.87;1.10;;;;;;;13.75;27.00;102537.28;1838081;75;21045;-59
2021/10/08 11:11:22;;;;;;;4.67;1.20;;;;;;;13.74;26.96;102541.73;1803711;77;21105;-60
2021/10/08 11:13:48;;;;;;;4.20;1.00;;;;;;;13.76;27.15;102537.67;1833014;75;21057;-58
2021/10/08 11:16:19;;;;;;;2.70;1.00;;;;;;;13.83;28.34;102543.45;1808499;75;21135;-58
2021/10/08 11:18:50;;;;;;;3.95;1.37;;;;;;;13.92;27.78;102538.95;1813705;77;22049;-59
2021/10/08 11:21:41;;;;;;;2.87;1.07;;;;;;;14.00;27.83;102538.47;1810998;75;20899;-59
2021/10/08 11:24:22;;;;;;;3.30;0.90;;;;;;;14.09;28.12;102532.64;1837184;75;20920;-59
2021/10/08 11:26:59;;;;;;;3.37;1.00;;;;;;;14.17;28.27;102546.27;1809593;77;21025;-58
2021/10/08 11:29:30;;;;;;;2.92;1.00;;;;;;;14.22;27.31;102532.72;1838043;77;21470;-58
2021/10/08 11:32:07;;;;;;;4.15;1.30;;;;;;;14.19;27.24;102535.55;1836033;75;21088;-58
2021/10/08 11:34:50;;;;;;;3.90;1.35;;;;;;;14.16;27.99;102533.95;1834200;75;21545;-59
2021/10/08 11:37:16;;;;;;;3.02;1.00;;;;;;;14.20;28.57;102527.52;1803945;77;20985;-59
2021/10/08 11:39:44;;;;;;;3.95;1.47;;;;;;;14.29;28.30;102532.27;1804301;77;21727;-59
2021/10/08 11:42:13;;;;;;;4.15;1.27;;;;;;;14.38;28.00;102529.52;1837547;76;21604;-59
2021/10/08 11:45:01;;;;;;;4.53;1.50;;;;;;;14.47;28.29;102543.98;1834992;75;21069;-59